METAR Data
IDs: Format: Raw Decoded Include TAF

Data at: 0207 UTC 30 Mar 2023

METAR for:KAEJ (Buena Vista/Central, CO, US)
Text:KAEJ 300155Z AUTO 19018G22KT 10SM CLR 08/M16 A2987 RMK AO2 T00801161
Temperature: 8.0°C ( 46°F)
Dewpoint:-16.1°C ( 3°F) [RH = 16%]
Pressure (altimeter):29.87 inches Hg (1011.6 mb)
Winds:from the S (190 degrees) at 21 MPH (18 knots; 9.3 m/s) gusting to 25 MPH (22 knots; 11.3 m/s)
Visibility:10 or more sm (16+ km)
Ceiling:at least 12,000 feet AGL
Clouds:sky clear below 12,000 feet AGL
QC Flag:automated observation with no human augmentation